Time;durP1;ratioP1;P1;durP2;ratioP2;P2;SDS_P1;SDS_P2;PMS_P1;PMS_P2;Temp;Humidity;BMP_temperature;BMP_pressure;BME280_temperature;BME280_humidity;BME280_pressure;Samples;Min_cycle;Max_cycle;Signal;HPM_P1;HPM_P2
2022/09/23 00:01:36;;;;;;;18.05;13.23;;;;;;;11.44;77.95;101797.03;6236957;22;20044;-86
2022/09/23 00:04:01;;;;;;;16.83;13.63;;;;;;;11.43;77.84;101791.81;6234151;23;20035;-86
2022/09/23 00:06:27;;;;;;;18.45;13.40;;;;;;;11.37;77.99;101788.47;6235623;23;20022;-86
2022/09/23 00:08:53;;;;;;;15.13;13.52;;;;;;;11.35;77.95;101785.22;6236683;23;20318;-87
2022/09/23 00:11:28;;;;;;;17.05;13.57;;;;;;;11.35;77.85;101786.00;6233693;23;20496;-86
2022/09/23 00:13:57;;;;;;;15.05;13.30;;;;;;;11.37;78.33;101789.28;6234734;23;20020;-87
2022/09/23 00:16:27;;;;;;;15.23;13.60;;;;;;;11.37;77.90;101791.28;6234648;23;20455;-87
2022/09/23 00:18:52;;;;;;;17.17;13.73;;;;;;;11.29;78.43;101781.03;6234502;23;20012;-87
2022/09/23 00:21:19;;;;;;;18.23;13.85;;;;;;;11.32;78.45;101783.13;6234408;22;20322;-86
2022/09/23 00:23:45;;;;;;;17.83;13.55;;;;;;;11.26;78.33;101776.97;6232117;23;20283;-86
2022/09/23 00:26:14;;;;;;;14.93;13.35;;;;;;;11.30;77.99;101779.84;6237188;23;20020;-87
2022/09/23 00:28:40;;;;;;;18.85;13.65;;;;;;;11.28;78.29;101779.41;6236880;23;20016;-86
2022/09/23 00:31:11;;;;;;;16.90;13.82;;;;;;;11.24;78.58;101773.72;6238516;22;20004;-86
2022/09/23 00:33:39;;;;;;;17.08;13.68;;;;;;;11.24;78.38;101772.91;6237100;23;20012;-86
2022/09/23 00:36:06;;;;;;;15.55;13.95;;;;;;;11.17;78.02;101760.34;6237107;23;20432;-87
2022/09/23 00:38:35;;;;;;;15.88;13.80;;;;;;;11.16;78.57;101767.13;6238424;23;20047;-86
2022/09/23 00:41:01;;;;;;;18.83;15.00;;;;;;;11.15;78.48;101762.69;6239382;22;20008;-86
2022/09/23 00:43:43;;;;;;;15.90;14.15;;;;;;;11.19;78.65;101772.00;6236001;22;20444;-87
2022/09/23 00:46:29;;;;;;;19.38;14.70;;;;;;;11.15;78.54;101759.91;6239143;23;20087;-86
2022/09/23 00:49:10;;;;;;;16.33;13.95;;;;;;;11.22;78.22;101769.66;6239289;23;20008;-86
2022/09/23 00:51:42;;;;;;;17.48;14.25;;;;;;;11.19;78.56;101769.22;6237016;23;20012;-86
2022/09/23 00:54:08;;;;;;;19.38;13.63;;;;;;;11.17;78.05;101763.16;6238452;23;20035;-87
2022/09/23 00:56:36;;;;;;;17.63;13.60;;;;;;;11.16;78.45;101763.50;6241084;23;20015;-86
2022/09/23 00:59:02;;;;;;;18.80;14.60;;;;;;;11.15;78.12;101764.66;6241987;23;20023;-87
2022/09/23 01:01:27;;;;;;;17.05;14.68;;;;;;;11.13;78.43;101767.00;6238790;23;20004;-86
2022/09/23 01:03:54;;;;;;;17.52;14.23;;;;;;;11.14;78.51;101761.06;6237337;23;20429;-87
2022/09/23 01:06:22;;;;;;;20.17;13.75;;;;;;;11.05;78.55;101754.81;6240797;22;20008;-86
2022/09/23 01:08:48;;;;;;;17.13;14.02;;;;;;;11.07;78.44;101752.47;6237860;23;20000;-87
2022/09/23 01:11:22;;;;;;;18.23;14.45;;;;;;;11.09;78.59;101758.53;6236114;23;20019;-87
2022/09/23 01:14:12;;;;;;;16.38;14.23;;;;;;;11.07;78.79;101758.06;6236978;23;20027;-86
2022/09/23 01:16:41;;;;;;;16.60;13.77;;;;;;;11.07;78.23;101752.47;6237681;23;20327;-85
2022/09/23 01:19:47;;;;;;;18.33;14.27;;;;;;;11.07;78.36;101754.44;6238934;23;20322;-86
2022/09/23 01:22:34;;;;;;;17.50;14.75;;;;;;;11.07;78.36;101752.47;6241116;22;20392;-86
2022/09/23 01:25:12;;;;;;;19.25;13.68;;;;;;;11.05;78.54;101743.63;6239993;23;20012;-86
2022/09/23 01:27:46;;;;;;;17.48;14.13;;;;;;;11.06;78.35;101755.63;6240874;23;20087;-86
2022/09/23 01:30:30;;;;;;;17.88;14.07;;;;;;;11.06;78.12;101750.84;6238434;23;20050;-86
2022/09/23 01:32:58;;;;;;;17.50;14.20;;;;;;;11.02;78.29;101740.72;6234006;23;20368;-86
2022/09/23 01:35:43;;;;;;;16.90;13.18;;;;;;;11.02;78.01;101733.13;6234457;23;20234;-86
2022/09/23 01:38:39;;;;;;;18.25;15.05;;;;;;;11.04;78.05;101732.75;6239165;22;19996;-86
2022/09/23 01:41:23;;;;;;;17.48;14.88;;;;;;;11.02;78.48;101726.69;6239759;23;20058;-86
2022/09/23 01:44:05;;;;;;;17.52;14.45;;;;;;;11.00;78.48;101710.25;6237880;23;20461;-87
2022/09/23 01:46:40;;;;;;;18.52;14.55;;;;;;;11.01;78.42;101714.69;6236441;23;20384;-86
2022/09/23 01:49:08;;;;;;;19.38;14.82;;;;;;;11.00;78.75;101724.25;6236774;23;20016;-86
2022/09/23 01:51:42;;;;;;;18.63;14.68;;;;;;;10.98;78.52;101723.78;6236351;23;20119;-86
2022/09/23 01:54:21;;;;;;;21.80;15.43;;;;;;;10.97;78.83;101722.19;6230736;23;20016;-86
2022/09/23 01:57:15;;;;;;;17.45;15.18;;;;;;;10.88;78.53;101704.72;6209326;23;20032;-86
2022/09/23 01:59:47;;;;;;;19.33;14.73;;;;;;;10.83;78.71;101696.59;6181025;23;20023;-87
2022/09/23 02:02:18;;;;;;;22.40;15.52;;;;;;;10.87;78.37;101701.09;6180932;23;20010;-86
2022/09/23 02:04:53;;;;;;;18.17;14.95;;;;;;;10.85;78.01;101694.25;6179061;23;20569;-86
2022/09/23 02:07:34;;;;;;;17.10;13.93;;;;;;;10.95;77.94;101711.34;6207016;23;20009;-86
2022/09/23 02:10:25;;;;;;;22.05;15.50;;;;;;;10.86;78.20;101701.50;6205239;23;20444;-86
2022/09/23 02:12:56;;;;;;;19.27;15.85;;;;;;;10.88;78.10;101710.31;6206460;23;20071;-86
2022/09/23 02:15:32;;;;;;;20.27;15.38;;;;;;;10.87;78.90;101705.91;6181523;23;20396;-86
2022/09/23 02:18:03;;;;;;;18.02;14.95;;;;;;;10.86;78.09;101701.50;6206685;23;20435;-86
2022/09/23 02:20:33;;;;;;;19.20;15.75;;;;;;;10.75;78.50;101685.22;6179265;23;20019;-86
2022/09/23 02:23:07;;;;;;;18.20;15.88;;;;;;;10.74;78.37;101688.38;6205537;23;20454;-86
2022/09/23 02:25:43;;;;;;;20.40;16.25;;;;;;;10.83;78.38;101693.78;6178655;23;20466;-87
2022/09/23 02:28:16;;;;;;;22.33;15.98;;;;;;;10.77;78.81;101688.47;6180825;23;20001;-86
2022/09/23 02:30:55;;;;;;;18.60;16.17;;;;;;;10.82;78.59;101683.78;6179423;23;20449;-86
2022/09/23 02:33:35;;;;;;;21.95;16.45;;;;;;;10.81;78.53;101691.34;6182060;23;20468;-85
2022/09/23 02:36:45;;;;;;;20.60;15.93;;;;;;;10.75;78.54;101679.63;6182884;23;20009;-86
2022/09/23 02:39:13;;;;;;;22.65;16.13;;;;;;;10.76;78.45;101692.44;6092755;23;20021;-86
2022/09/23 02:41:49;;;;;;;22.17;17.17;;;;;;;10.81;78.53;101693.34;6171662;23;20016;-86
2022/09/23 02:44:17;;;;;;;19.67;16.48;;;;;;;10.78;78.78;101683.69;6182424;23;20016;-86
2022/09/23 02:46:43;;;;;;;19.38;14.65;;;;;;;10.80;78.36;101680.53;6181676;23;20008;-86
2022/09/23 02:49:17;;;;;;;21.27;15.88;;;;;;;10.77;78.65;101674.47;6179757;23;20483;-86
2022/09/23 02:51:44;;;;;;;22.85;18.67;;;;;;;10.78;78.53;101670.47;6180352;23;20008;-86
2022/09/23 02:54:14;;;;;;;19.65;16.15;;;;;;;10.80;77.83;101672.13;6181461;23;20093;-86
2022/09/23 02:56:40;;;;;;;23.33;17.60;;;;;;;10.76;78.11;101658.03;6207574;23;20365;-86
2022/09/23 02:59:08;;;;;;;19.95;16.27;;;;;;;10.77;78.42;101665.22;6205248;23;20043;-86
2022/09/23 03:01:48;;;;;;;22.25;16.85;;;;;;;10.82;78.32;101669.78;6180317;23;20015;-86
2022/09/23 03:04:25;;;;;;;21.55;16.27;;;;;;;10.80;78.06;101663.72;6184671;23;20012;-86
2022/09/23 03:06:50;;;;;;;24.65;16.35;;;;;;;10.80;78.65;101658.13;6182589;23;20012;-86
2022/09/23 03:09:30;;;;;;;22.30;17.67;;;;;;;10.65;78.78;101640.94;6180169;23;20059;-86
2022/09/23 03:12:30;;;;;;;21.58;16.88;;;;;;;10.68;78.72;101650.59;6208136;23;20433;-86
2022/09/23 03:15:16;;;;;;;21.92;17.38;;;;;;;10.56;78.86;101626.28;6208932;23;20050;-86
2022/09/23 03:18:19;;;;;;;22.05;16.60;;;;;;;10.70;78.38;101645.47;6180456;23;20111;-86
2022/09/23 03:20:56;;;;;;;22.42;16.60;;;;;;;10.75;78.37;101633.97;6182661;23;20012;-86
2022/09/23 03:23:33;;;;;;;19.67;15.43;;;;;;;10.71;78.17;101642.31;6181869;23;20016;-86
2022/09/23 03:26:05;;;;;;;17.20;15.40;;;;;;;10.59;78.62;101614.38;6182334;23;20016;-86
2022/09/23 03:28:31;;;;;;;19.55;17.45;;;;;;;10.53;78.63;101604.63;6182687;23;20055;-86
2022/09/23 03:30:59;;;;;;;23.08;16.73;;;;;;;10.44;80.13;101640.38;6211788;23;20004;-86
2022/09/23 03:33:26;;;;;;;17.70;15.32;;;;;;;10.58;78.64;101635.13;6183662;23;20012;-86
2022/09/23 03:38:50;;;;;;;22.20;17.77;;;;;;;10.30;80.46;101624.81;6209812;23;20063;-86
2022/09/23 03:41:21;;;;;;;;;;;;;;;10.45;80.54;101636.38;6183356;23;20015;-86
2022/09/23 03:43:47;;;;;;;22.45;16.30;;;;;;;10.48;79.92;101624.50;6180441;23;19963;-87
2022/09/23 03:46:17;;;;;;;23.67;16.77;;;;;;;10.36;80.39;101636.56;6183498;23;20027;-86
2022/09/23 03:48:43;;;;;;;20.58;18.00;;;;;;;10.41;80.59;101641.06;6209920;23;20028;-86
2022/09/23 03:51:22;;;;;;;19.67;16.75;;;;;;;10.34;80.57;101625.72;6182705;23;20016;-86
2022/09/23 03:53:48;;;;;;;19.45;16.30;;;;;;;10.42;79.73;101614.72;6183859;23;20008;-86
2022/09/23 03:56:14;;;;;;;21.90;15.48;;;;;;;10.37;80.14;101619.41;6239822;23;20337;-86
2022/09/23 03:58:39;;;;;;;19.63;17.15;;;;;;;10.42;79.42;101611.94;6212632;23;20419;-86
2022/09/23 04:01:05;;;;;;;24.95;18.75;;;;;;;10.43;79.97;101616.34;6213229;23;20011;-86
2022/09/23 04:03:30;;;;;;;20.40;16.23;;;;;;;10.38;79.76;101620.22;6238773;23;20083;-86
2022/09/23 04:05:56;;;;;;;22.30;18.02;;;;;;;10.37;80.34;101608.22;6208655;23;20008;-87
2022/09/23 04:08:21;;;;;;;20.38;16.85;;;;;;;10.34;80.42;101608.94;6208398;23;20070;-86
2022/09/23 04:10:46;;;;;;;21.30;17.50;;;;;;;10.29;79.66;101586.81;6209198;23;20069;-87
2022/09/23 04:13:12;;;;;;;20.67;16.73;;;;;;;10.40;79.34;101584.31;6235699;23;20012;-86
2022/09/23 04:15:39;;;;;;;21.63;16.98;;;;;;;10.41;79.43;101590.69;6234595;23;20421;-86
2022/09/23 04:18:04;;;;;;;17.52;15.57;;;;;;;10.47;79.08;101603.25;6208331;23;20026;-87
2022/09/23 04:20:29;;;;;;;20.00;15.73;;;;;;;10.36;79.90;101606.59;6207718;23;20016;-86
2022/09/23 04:22:55;;;;;;;23.33;17.52;;;;;;;10.33;79.68;101595.28;6208237;23;20032;-86
2022/09/23 04:25:20;;;;;;;19.33;15.95;;;;;;;10.34;79.50;101596.94;6234096;23;20376;-87
2022/09/23 04:27:46;;;;;;;20.25;16.67;;;;;;;10.37;79.37;101602.63;6207690;23;20008;-86
2022/09/23 04:30:12;;;;;;;21.63;16.98;;;;;;;10.34;80.31;101606.13;6209609;23;20008;-86
2022/09/23 04:32:37;;;;;;;22.00;17.30;;;;;;;10.31;80.41;101604.06;6209612;23;20492;-86
2022/09/23 04:35:04;;;;;;;23.05;16.65;;;;;;;10.23;80.71;101595.81;6210401;23;20019;-86
2022/09/23 04:37:29;;;;;;;19.00;16.98;;;;;;;10.20;81.01;101608.50;6212189;23;20070;-87
2022/09/23 04:39:55;;;;;;;24.20;19.38;;;;;;;10.15;81.48;101623.56;6238153;23;20058;-86
2022/09/23 04:42:21;;;;;;;20.98;16.98;;;;;;;10.18;81.01;101605.25;6238969;23;20032;-87
2022/09/23 04:44:46;;;;;;;23.60;17.33;;;;;;;9.95;82.16;101602.22;6212465;23;20077;-86
2022/09/23 04:47:12;;;;;;;22.35;18.35;;;;;;;10.04;81.92;101599.28;6211536;23;20090;-86
2022/09/23 04:49:37;;;;;;;18.55;16.30;;;;;;;10.19;80.78;101609.69;6211936;23;20126;-86
2022/09/23 04:52:04;;;;;;;23.83;18.38;;;;;;;10.07;81.26;101604.94;6211827;23;20016;-86
2022/09/23 04:54:30;;;;;;;19.05;16.23;;;;;;;10.27;79.75;101605.13;6216178;23;20510;-86
2022/09/23 04:56:55;;;;;;;19.35;15.48;;;;;;;10.26;80.46;101604.28;6239114;22;20008;-86
2022/09/23 04:59:21;;;;;;;19.33;15.48;;;;;;;10.17;81.17;101603.63;6236110;23;20004;-86
2022/09/23 05:01:46;;;;;;;18.33;15.80;;;;;;;10.22;80.96;101608.97;6238070;23;20073;-86
2022/09/23 05:04:13;;;;;;;22.42;16.00;;;;;;;10.21;80.73;101604.53;6237282;23;20004;-87
2022/09/23 05:06:38;;;;;;;20.67;16.25;;;;;;;10.22;80.40;101597.75;6239321;23;20047;-86
2022/09/23 05:09:06;;;;;;;24.27;18.60;;;;;;;10.02;82.31;101602.44;6241804;22;20216;-86
2022/09/23 05:11:32;;;;;;;22.23;16.27;;;;;;;9.96;81.83;101610.25;6239296;22;20012;-86
2022/09/23 05:13:58;;;;;;;19.98;15.88;;;;;;;9.91;82.72;101599.31;6237345;23;20020;-87
2022/09/23 05:16:25;;;;;;;19.38;16.10;;;;;;;10.08;81.69;101611.38;6239797;23;20008;-86
2022/09/23 05:18:51;;;;;;;21.73;15.93;;;;;;;10.00;81.81;101599.16;6237201;22;20012;-86
2022/09/23 05:21:19;;;;;;;20.38;16.35;;;;;;;10.06;82.10;101605.34;6236373;23;20012;-86
2022/09/23 05:23:53;;;;;;;22.05;16.00;;;;;;;10.19;81.09;101609.69;6238529;22;20008;-86
2022/09/23 05:26:20;;;;;;;18.77;15.10;;;;;;;10.17;80.96;101598.03;6239647;22;20516;-86
2022/09/23 05:28:46;;;;;;;18.05;14.45;;;;;;;10.26;80.26;101589.47;6239046;22;20546;-86
2022/09/23 05:31:14;;;;;;;20.38;16.73;;;;;;;10.11;81.29;101577.09;6234538;23;20004;-86
2022/09/23 05:33:44;;;;;;;18.55;14.50;;;;;;;10.15;81.11;101592.00;6238085;22;20040;-86
2022/09/23 05:36:10;;;;;;;18.60;15.80;;;;;;;10.05;81.12;101584.91;6237583;23;20035;-86
2022/09/23 05:38:36;;;;;;;25.02;16.90;;;;;;;10.06;81.70;101592.16;6238130;23;20050;-87
2022/09/23 05:41:04;;;;;;;19.50;15.57;;;;;;;9.96;81.99;101599.06;6232237;23;20012;-86
2022/09/23 05:43:30;;;;;;;18.73;14.57;;;;;;;10.02;82.15;101596.84;6239254;23;20016;-86
2022/09/23 05:46:06;;;;;;;21.90;16.65;;;;;;;10.14;81.88;101604.34;6239767;23;20028;-86
2022/09/23 05:48:33;;;;;;;20.98;16.70;;;;;;;9.70;84.74;101601.50;6237532;23;20004;-86
2022/09/23 05:50:59;;;;;;;20.00;16.35;;;;;;;9.97;83.09;101605.47;6236234;23;20462;-86
2022/09/23 05:53:26;;;;;;;20.25;16.27;;;;;;;10.00;82.84;101604.75;6238167;23;20086;-86
2022/09/23 05:55:53;;;;;;;21.35;16.35;;;;;;;10.03;82.96;101600.44;6237267;23;20042;-86
2022/09/23 05:58:18;;;;;;;23.77;17.67;;;;;;;9.92;83.69;101598.16;6240146;23;20079;-86
2022/09/23 06:00:44;;;;;;;21.75;17.05;;;;;;;9.86;84.68;101599.56;6235160;23;20055;-86
2022/09/23 06:03:13;;;;;;;17.50;14.63;;;;;;;10.14;81.74;101598.75;6236335;23;20027;-86
2022/09/23 06:05:39;;;;;;;21.77;14.45;;;;;;;10.18;83.01;101594.06;6233805;23;20016;-81
2022/09/23 06:08:05;;;;;;;20.75;14.90;;;;;;;10.44;80.26;101590.00;6231882;23;20156;-76
2022/09/23 06:10:35;;;;;;;18.45;14.70;;;;;;;10.50;79.93;101599.75;6232633;23;20049;-77
2022/09/23 06:13:01;;;;;;;18.23;13.85;;;;;;;10.48;80.69;101599.31;6234554;23;20008;-76
2022/09/23 06:15:26;;;;;;;21.60;14.70;;;;;;;10.41;81.76;101596.31;6233658;22;20066;-79
2022/09/23 06:17:52;;;;;;;20.17;15.35;;;;;;;9.80;85.68;101595.38;6229162;23;20022;-79
2022/09/23 06:20:17;;;;;;;22.17;15.68;;;;;;;9.68;86.54;101598.25;6234758;23;20422;-80
2022/09/23 06:22:42;;;;;;;20.95;16.30;;;;;;;10.07;83.89;101587.38;6237532;23;20008;-79
2022/09/23 06:25:08;;;;;;;21.23;16.02;;;;;;;9.86;85.73;101596.75;6235712;22;20111;-79
2022/09/23 06:27:33;;;;;;;21.88;16.25;;;;;;;9.97;85.42;101594.28;6236424;23;20397;-79
2022/09/23 06:29:59;;;;;;;20.00;16.77;;;;;;;9.89;85.90;101595.25;6239300;22;20016;-79
2022/09/23 06:32:24;;;;;;;23.52;17.42;;;;;;;9.68;87.05;101603.84;6240088;22;20437;-79
2022/09/23 06:34:50;;;;;;;20.42;15.95;;;;;;;9.81;86.37;101590.63;6236590;23;20008;-79
2022/09/23 06:37:16;;;;;;;20.65;15.07;;;;;;;9.84;86.80;101601.91;6238156;23;20008;-79
2022/09/23 06:39:41;;;;;;;21.08;15.77;;;;;;;9.93;85.36;101599.78;6240957;22;20764;-79
2022/09/23 06:42:06;;;;;;;21.05;15.23;;;;;;;10.09;84.68;101610.19;6237714;22;20019;-78
2022/09/23 06:44:32;;;;;;;20.23;14.85;;;;;;;10.07;84.72;101604.94;6237535;23;20314;-79
2022/09/23 06:46:57;;;;;;;20.75;15.57;;;;;;;9.92;86.52;101598.16;6237558;23;20376;-78
2022/09/23 06:49:23;;;;;;;21.95;14.38;;;;;;;10.31;83.42;101592.06;6237890;23;20031;-81
2022/09/23 06:51:49;;;;;;;18.88;14.90;;;;;;;10.36;83.95;101600.19;6238871;22;20336;-81
2022/09/23 06:54:14;;;;;;;20.40;13.73;;;;;;;10.23;84.29;101590.22;6239756;23;20020;-81
2022/09/23 06:56:42;;;;;;;20.77;15.85;;;;;;;10.08;86.56;101591.81;6241973;23;20019;-81
2022/09/23 06:59:11;;;;;;;17.65;14.20;;;;;;;10.23;84.68;101599.41;6239360;23;20000;-80
2022/09/23 07:01:37;;;;;;;21.33;15.00;;;;;;;10.21;85.27;101604.53;6240111;23;20323;-81
2022/09/23 07:04:02;;;;;;;20.13;14.68;;;;;;;10.18;85.74;101616.44;6241099;22;20027;-81
2022/09/23 07:06:27;;;;;;;21.33;14.98;;;;;;;10.28;86.70;101610.31;6237783;23;20051;-81
2022/09/23 07:08:53;;;;;;;20.55;14.48;;;;;;;10.17;86.47;101598.03;6233735;23;20436;-81
2022/09/23 07:11:21;;;;;;;21.90;14.52;;;;;;;10.24;86.46;101605.81;6237488;23;20456;-80
2022/09/23 07:13:47;;;;;;;20.00;14.57;;;;;;;10.35;84.94;101598.53;6241048;23;20043;-81
2022/09/23 07:16:12;;;;;;;21.60;14.90;;;;;;;10.20;87.22;101594.50;6236958;23;20012;-81
2022/09/23 07:18:39;;;;;;;19.08;13.63;;;;;;;10.29;86.87;101598.00;6237959;23;20008;-80
2022/09/23 07:21:13;;;;;;;17.85;14.63;;;;;;;10.41;86.19;101602.69;6239052;23;20043;-81
2022/09/23 07:23:43;;;;;;;22.70;16.60;;;;;;;10.33;86.80;101601.72;6238168;23;20018;-80
2022/09/23 07:26:09;;;;;;;21.63;15.80;;;;;;;10.42;86.94;101603.53;6238642;23;20016;-80
2022/09/23 07:28:36;;;;;;;17.17;12.05;;;;;;;10.61;82.42;101597.22;6238401;23;20395;-81
2022/09/23 07:31:08;;;;;;;21.75;16.23;;;;;;;10.56;85.98;101603.88;6239344;23;20352;-81
2022/09/23 07:33:38;;;;;;;20.20;14.60;;;;;;;10.57;86.04;101600.75;6238936;22;20011;-81
2022/09/23 07:36:09;;;;;;;21.50;14.85;;;;;;;10.58;84.42;101595.94;6235840;23;20436;-81
2022/09/23 07:38:35;;;;;;;20.55;15.40;;;;;;;10.57;86.17;101603.53;6241492;22;20011;-82
2022/09/23 07:41:04;;;;;;;20.50;15.27;;;;;;;10.75;85.74;101606.81;6240136;22;20016;-81
2022/09/23 07:43:31;;;;;;;24.45;15.23;;;;;;;10.80;85.18;101599.31;6238822;23;20448;-81
2022/09/23 07:45:57;;;;;;;21.00;14.88;;;;;;;10.74;84.88;101599.56;6239513;22;20014;-80
2022/09/23 07:48:23;;;;;;;22.10;16.10;;;;;;;10.78;85.97;101606.06;6238764;23;20016;-81
2022/09/23 07:50:49;;;;;;;21.40;15.02;;;;;;;10.92;85.96;101599.19;6237615;23;20007;-81
2022/09/23 07:53:14;;;;;;;21.52;16.23;;;;;;;10.98;85.71;101603.34;6240272;22;20008;-81
2022/09/23 07:55:40;;;;;;;20.48;16.00;;;;;;;11.01;84.39;101607.44;6238523;22;20016;-80
2022/09/23 07:58:05;;;;;;;20.95;16.02;;;;;;;11.06;85.18;101593.94;6240846;23;20032;-81
2022/09/23 08:00:32;;;;;;;22.23;16.35;;;;;;;11.10;84.68;101589.22;6213304;23;20011;-81
2022/09/23 08:02:57;;;;;;;22.52;15.73;;;;;;;11.18;85.64;101601.44;6241013;23;20008;-81
2022/09/23 08:05:24;;;;;;;19.65;14.85;;;;;;;11.22;84.50;101591.13;6214871;23;20023;-81
2022/09/23 08:07:49;;;;;;;20.80;14.68;;;;;;;11.35;84.66;101589.00;6186625;23;20296;-81
2022/09/23 08:10:17;;;;;;;21.95;15.25;;;;;;;11.38;84.08;101588.25;6242857;23;20079;-81
2022/09/23 08:12:44;;;;;;;18.83;14.55;;;;;;;11.45;84.51;101596.84;6238252;23;20036;-81
2022/09/23 08:15:09;;;;;;;18.38;14.35;;;;;;;11.51;84.66;101602.97;6214864;23;20444;-81
2022/09/23 08:17:35;;;;;;;21.40;14.70;;;;;;;11.55;85.21;101598.25;6240986;23;20027;-82
2022/09/23 08:20:00;;;;;;;20.38;16.15;;;;;;;11.65;83.86;101610.88;6241128;23;20417;-81
2022/09/23 08:22:26;;;;;;;22.02;15.00;;;;;;;11.67;83.88;101602.91;6212624;23;20036;-81
2022/09/23 08:24:52;;;;;;;20.58;14.38;;;;;;;11.73;83.89;101593.84;6240092;23;20051;-81
2022/09/23 08:27:18;;;;;;;31.25;16.25;;;;;;;11.79;84.35;101597.16;6214483;23;20000;-81
2022/09/23 08:29:43;;;;;;;29.60;14.85;;;;;;;11.84;84.05;101598.88;6240839;23;20020;-81
2022/09/23 08:32:10;;;;;;;23.40;14.35;;;;;;;11.97;84.11;101604.00;6238540;23;20123;-82
2022/09/23 08:34:35;;;;;;;23.42;14.40;;;;;;;12.02;83.15;101594.47;6214176;23;20748;-81
2022/09/23 08:37:01;;;;;;;19.17;14.40;;;;;;;12.19;82.10;101604.41;6214282;23;20008;-82
2022/09/23 08:39:26;;;;;;;18.98;14.05;;;;;;;12.22;81.91;101614.09;6214103;23;20420;-81
2022/09/23 08:42:05;;;;;;;17.10;13.82;;;;;;;12.31;80.81;101611.84;6242907;23;20007;-81
2022/09/23 08:44:46;;;;;;;19.88;14.95;;;;;;;12.38;81.65;101601.56;6215655;23;20352;-81
2022/09/23 08:47:20;;;;;;;20.20;14.75;;;;;;;12.60;81.14;101596.31;6215414;23;20527;-81
2022/09/23 08:50:19;;;;;;;18.00;13.80;;;;;;;12.68;81.36;101600.88;6242414;23;20016;-80
2022/09/23 08:53:03;;;;;;;21.60;13.30;;;;;;;12.84;80.57;101599.94;6240981;23;20016;-81
2022/09/23 08:55:42;;;;;;;21.13;13.75;;;;;;;12.94;79.94;101599.31;6231522;23;20022;-81
2022/09/23 08:58:33;;;;;;;19.48;13.95;;;;;;;12.95;78.71;101596.13;6240782;23;20066;-81
2022/09/23 09:01:20;;;;;;;18.85;14.27;;;;;;;13.02;78.87;101598.22;6239226;23;20028;-81
2022/09/23 09:03:50;;;;;;;19.08;12.82;;;;;;;13.05;79.46;101599.47;6236334;23;20035;-81
2022/09/23 09:06:47;;;;;;;15.75;13.07;;;;;;;13.18;79.13;101598.09;6237284;23;20353;-82
2022/09/23 09:09:25;;;;;;;18.05;13.73;;;;;;;13.16;78.77;101589.22;6242739;22;20004;-82
2022/09/23 09:11:59;;;;;;;18.73;12.73;;;;;;;13.31;77.61;101596.69;6241188;23;20027;-80
2022/09/23 09:14:55;;;;;;;18.58;13.63;;;;;;;13.39;78.14;101592.81;6243104;23;20012;-80
2022/09/23 09:17:35;;;;;;;20.38;13.20;;;;;;;13.48;78.10;101589.72;6227540;23;20020;-82
2022/09/23 09:20:22;;;;;;;15.27;11.43;;;;;;;13.66;77.90;101595.59;6244170;22;20019;-82
2022/09/23 09:22:59;;;;;;;18.63;13.32;;;;;;;13.70;76.90;101584.38;6244362;22;20318;-81
2022/09/23 09:25:38;;;;;;;19.63;13.35;;;;;;;14.00;76.72;101587.16;6243136;22;20000;-80
2022/09/23 09:28:13;;;;;;;17.58;12.23;;;;;;;13.95;75.67;101585.47;6241991;23;20498;-81
2022/09/23 09:30:38;;;;;;;17.45;12.50;;;;;;;14.16;77.11;101579.28;6244248;22;20008;-81
2022/09/23 09:33:12;;;;;;;15.52;12.63;;;;;;;14.22;76.39;101577.75;6242717;22;20012;-80
2022/09/23 09:35:49;;;;;;;18.77;12.27;;;;;;;14.44;76.24;101577.94;6240708;23;20340;-80
2022/09/23 09:38:15;;;;;;;20.63;12.43;;;;;;;14.57;75.39;101575.72;6245267;22;20012;-81
2022/09/23 09:40:46;;;;;;;14.45;11.30;;;;;;;14.54;75.51;101577.25;6241497;23;20043;-80
2022/09/23 09:43:22;;;;;;;15.18;11.32;;;;;;;14.58;75.13;101572.47;6242633;23;20440;-80
2022/09/23 09:46:22;;;;;;;17.63;11.88;;;;;;;14.60;75.03;101563.66;6243633;22;20009;-80
2022/09/23 09:48:58;;;;;;;18.88;11.75;;;;;;;14.68;75.08;101573.78;6244022;23;20018;-80
2022/09/23 09:51:26;;;;;;;15.45;11.27;;;;;;;14.61;74.85;101570.91;6243721;23;20440;-80
2022/09/23 09:53:53;;;;;;;16.20;12.35;;;;;;;14.73;75.82;101573.41;6243774;22;20472;-80
2022/09/23 09:56:25;;;;;;;13.68;10.70;;;;;;;14.74;75.02;101566.59;6245083;23;20008;-80
2022/09/23 09:58:55;;;;;;;17.38;11.35;;;;;;;14.78;74.06;101564.63;6218644;23;20004;-80
2022/09/23 10:01:33;;;;;;;16.55;10.80;;;;;;;14.93;73.81;101570.38;6244819;23;20142;-80
2022/09/23 10:04:05;;;;;;;14.00;10.68;;;;;;;15.16;73.09;101559.66;6243210;23;20004;-80
2022/09/23 10:06:33;;;;;;;18.27;11.63;;;;;;;15.13;73.59;101557.59;6240784;23;20016;-80
2022/09/23 10:09:12;;;;;;;15.90;10.48;;;;;;;15.27;73.27;101553.28;6215310;23;20621;-81
2022/09/23 10:11:39;;;;;;;17.67;12.30;;;;;;;15.33;72.73;101554.53;6244545;23;20087;-80
2022/09/23 10:14:25;;;;;;;16.92;12.00;;;;;;;15.48;72.01;101544.13;6239096;23;20004;-80
2022/09/23 10:17:04;;;;;;;16.23;11.35;;;;;;;15.59;70.80;101553.44;6234705;23;20050;-82
2022/09/23 10:19:30;;;;;;;16.38;10.45;;;;;;;15.52;73.63;101553.41;6243066;23;20486;-80
2022/09/23 10:21:59;;;;;;;15.73;9.73;;;;;;;15.71;70.53;101541.00;6207068;23;20074;-80
2022/09/23 10:24:31;;;;;;;14.85;9.82;;;;;;;15.68;71.12;101553.88;6237579;23;20110;-80
2022/09/23 10:27:06;;;;;;;14.70;10.70;;;;;;;15.61;70.99;101542.56;6212081;23;20046;-80
2022/09/23 10:29:54;;;;;;;15.27;10.10;;;;;;;15.71;70.42;101547.44;6214681;23;20341;-80
2022/09/23 10:32:27;;;;;;;17.55;9.68;;;;;;;15.80;70.70;101550.72;6211130;23;20016;-80
2022/09/23 10:35:17;;;;;;;14.88;9.45;;;;;;;15.88;71.06;101554.38;6213934;23;20332;-79
2022/09/23 10:37:51;;;;;;;14.93;10.68;;;;;;;15.86;70.42;101542.69;6211393;23;20871;-80
2022/09/23 10:49:27;;;;;;;15.32;9.65;;;;;;;15.98;73.11;101545.16;6241190;23;20054;-80
2022/09/23 10:52:21;;;;;;;19.03;10.77;;;;;;;16.15;71.87;101545.56;6211389;23;20889;-78
2022/09/23 10:55:16;;;;;;;16.35;9.75;;;;;;;16.21;71.80;101547.63;6225304;23;20020;-80
2022/09/23 10:57:56;;;;;;;13.38;9.02;;;;;;;16.11;70.78;101544.78;6241598;23;20512;-79
2022/09/23 11:00:45;;;;;;;17.48;9.00;;;;;;;16.12;70.37;101549.19;6240394;23;20007;-79
2022/09/23 11:03:47;;;;;;;13.55;9.35;;;;;;;16.15;69.51;101546.41;6239752;22;20016;-79
2022/09/23 11:06:25;;;;;;;9.95;7.20;;;;;;;16.20;69.83;101540.34;6241131;23;20012;-79
2022/09/23 11:09:04;;;;;;;9.35;7.53;;;;;;;16.17;70.75;101543.16;6241118;23;20007;-80
2022/09/23 11:11:57;;;;;;;10.35;8.38;;;;;;;16.19;70.23;101543.56;6241511;23;20016;-81
2022/09/23 11:14:37;;;;;;;9.65;7.75;;;;;;;16.15;70.43;101531.44;6240317;22;20760;-79
2022/09/23 11:17:13;;;;;;;11.63;7.35;;;;;;;16.21;69.26;101539.16;6239478;23;20440;-80
2022/09/23 11:20:16;;;;;;;13.32;8.25;;;;;;;16.17;68.78;101541.16;6239794;23;20095;-79
2022/09/23 11:22:54;;;;;;;;;;;;;;;16.15;69.39;101534.25;6239650;23;20322;-80
2022/09/23 11:25:41;;;;;;;12.75;8.75;;;;;;;16.14;69.61;101530.63;6241726;23;19934;-79
2022/09/23 11:28:29;;;;;;;12.02;9.05;;;;;;;16.09;71.17;101531.06;6240023;23;20448;-81
2022/09/23 11:31:20;;;;;;;13.00;8.82;;;;;;;16.14;69.72;101530.63;6232175;23;20051;-79
2022/09/23 11:34:06;;;;;;;11.18;8.40;;;;;;;16.08;71.46;101529.41;6235818;23;20012;-79
2022/09/23 11:36:44;;;;;;;14.18;9.00;;;;;;;16.12;69.94;101523.78;6241347;22;20004;-79
2022/09/23 11:39:42;;;;;;;13.15;8.90;;;;;;;16.09;71.20;101519.75;6240725;23;20039;-79
2022/09/23 11:42:16;;;;;;;9.75;8.23;;;;;;;15.97;71.15;101512.44;6234391;23;20496;-80
2022/09/23 11:44:48;;;;;;;13.02;8.43;;;;;;;15.93;72.17;101514.47;6238860;22;20268;-79
2022/09/23 11:47:21;;;;;;;11.13;8.55;;;;;;;15.89;73.06;101513.63;6239152;23;20091;-79